Time;durP1;ratioP1;P1;durP2;ratioP2;P2;SDS_P1;SDS_P2;PMS_P1;PMS_P2;Temp;Humidity;BMP_temperature;BMP_pressure;BME280_temperature;BME280_humidity;BME280_pressure;Samples;Min_cycle;Max_cycle;Signal;HPM_P1;HPM_P2
2022/10/31 00:01:27;;;;;;;24.30;17.55;;;13.90;99.90;;;;;;5028840;28;20044;-83
2022/10/31 00:03:53;;;;;;;23.45;17.55;;;13.90;99.90;;;;;;5047918;28;20055;-83
2022/10/31 00:06:19;;;;;;;19.95;10.20;;;13.90;99.90;;;;;;5024439;28;20048;-83
2022/10/31 00:08:52;;;;;;;18.35;8.95;;;13.80;99.90;;;;;;5033087;28;20556;-83
2022/10/31 00:11:18;;;;;;;15.77;9.18;;;13.70;99.90;;;;;;5032951;28;20407;-83
2022/10/31 00:13:43;;;;;;;16.27;7.45;;;13.70;99.90;;;;;;5032539;28;20536;-83
2022/10/31 00:16:17;;;;;;;15.32;7.80;;;13.50;99.90;;;;;;5049649;28;20517;-83
2022/10/31 00:18:43;;;;;;;24.13;15.45;;;13.40;99.90;;;;;;5040943;28;20087;-84
2022/10/31 00:21:09;;;;;;;15.35;7.32;;;13.40;99.90;;;;;;5049396;28;20128;-84
2022/10/31 00:23:34;;;;;;;16.90;8.45;;;13.30;99.90;;;;;;5047635;28;20029;-84
2022/10/31 00:26:04;;;;;;;16.70;8.50;;;13.10;99.90;;;;;;5049257;28;20086;-84
2022/10/31 00:28:30;;;;;;;18.02;8.98;;;13.00;99.90;;;;;;5049076;28;20169;-84
2022/10/31 00:31:02;;;;;;;18.42;9.40;;;12.90;99.90;;;;;;5048705;28;20560;-84
2022/10/31 00:33:28;;;;;;;20.73;11.18;;;12.80;99.90;;;;;;5032009;28;20037;-84
2022/10/31 00:35:54;;;;;;;19.88;11.48;;;12.80;99.90;;;;;;5032241;28;20143;-84
2022/10/31 00:38:20;;;;;;;25.58;19.67;;;12.80;99.90;;;;;;5049380;28;20124;-84
2022/10/31 00:40:46;;;;;;;27.80;20.13;;;12.90;99.90;;;;;;5032507;28;20076;-84
2022/10/31 00:43:11;;;;;;;22.08;11.13;;;13.00;99.90;;;;;;5047718;28;20084;-84
2022/10/31 00:45:37;;;;;;;21.20;11.05;;;13.00;99.90;;;;;;5032644;28;20036;-84
2022/10/31 00:48:03;;;;;;;20.85;11.35;;;13.00;99.90;;;;;;5032062;28;20041;-84
2022/10/31 00:50:29;;;;;;;21.38;12.00;;;13.00;99.90;;;;;;5048368;28;20050;-84
2022/10/31 00:52:54;;;;;;;19.15;11.18;;;12.90;99.90;;;;;;5049954;28;20037;-84
2022/10/31 00:55:20;;;;;;;32.20;19.13;;;12.90;99.90;;;;;;5052803;28;20465;-84
2022/10/31 00:57:48;;;;;;;22.17;17.63;;;13.00;99.90;;;;;;5053047;28;20033;-84
2022/10/31 01:00:15;;;;;;;18.20;8.13;;;13.00;99.90;;;;;;5051952;28;20065;-84
2022/10/31 01:02:40;;;;;;;18.15;8.25;;;13.00;99.90;;;;;;5051964;28;20037;-84
2022/10/31 01:05:06;;;;;;;24.95;9.65;;;12.90;99.90;;;;;;5052692;28;20051;-84
2022/10/31 01:07:35;;;;;;;19.50;9.32;;;12.90;99.90;;;;;;5035649;28;20045;-84
2022/10/31 01:10:01;;;;;;;18.75;8.55;;;12.80;99.90;;;;;;5036111;28;20040;-84
2022/10/31 01:12:27;;;;;;;63.42;15.85;;;12.80;99.90;;;;;;5051382;28;20051;-84
2022/10/31 01:14:52;;;;;;;20.27;9.65;;;12.80;99.90;;;;;;5035904;28;20064;-84
2022/10/31 01:17:18;;;;;;;22.45;9.63;;;12.80;99.90;;;;;;5035700;28;20453;-84
2022/10/31 01:19:44;;;;;;;15.85;9.05;;;12.80;99.90;;;;;;5052040;28;20604;-84
2022/10/31 01:22:10;;;;;;;17.15;8.82;;;12.70;99.90;;;;;;5035260;28;20037;-84
2022/10/31 01:24:35;;;;;;;19.60;16.23;;;12.70;99.90;;;;;;5034485;28;20091;-83
2022/10/31 01:27:01;;;;;;;20.08;16.92;;;12.70;99.90;;;;;;5050780;28;20132;-84
2022/10/31 01:29:26;;;;;;;16.15;8.57;;;12.70;99.90;;;;;;5035530;28;20033;-84
2022/10/31 01:31:52;;;;;;;18.42;9.45;;;12.60;99.90;;;;;;5034490;28;20037;-84
2022/10/31 01:34:17;;;;;;;21.92;10.60;;;12.60;99.90;;;;;;5051914;28;20108;-84
2022/10/31 01:36:46;;;;;;;19.52;10.65;;;12.60;99.90;;;;;;5051996;28;20045;-84
2022/10/31 01:39:14;;;;;;;19.17;10.35;;;12.70;99.90;;;;;;5035752;28;20044;-84
2022/10/31 01:41:51;;;;;;;18.40;9.68;;;12.70;99.90;;;;;;5051698;28;20491;-84
2022/10/31 01:44:17;;;;;;;15.50;8.40;;;12.80;99.90;;;;;;5034455;28;20522;-84
2022/10/31 01:46:45;;;;;;;16.42;8.90;;;12.80;99.90;;;;;;5035170;28;20076;-84
2022/10/31 01:49:33;;;;;;;21.27;15.85;;;12.80;99.90;;;;;;5051749;28;20033;-84
2022/10/31 01:52:24;;;;;;;16.75;8.52;;;12.90;99.90;;;;;;5014406;28;20060;-84
2022/10/31 01:55:01;;;;;;;19.02;8.18;;;12.90;99.90;;;;;;5018858;28;20526;-84
2022/10/31 01:57:28;;;;;;;17.50;9.05;;;12.80;99.90;;;;;;5035378;28;20041;-84
2022/10/31 01:59:58;;;;;;;15.73;8.75;;;12.70;99.90;;;;;;5051746;28;20048;-84
2022/10/31 02:02:26;;;;;;;16.00;8.57;;;12.70;99.90;;;;;;5033599;28;20603;-84
2022/10/31 02:04:53;;;;;;;15.57;8.35;;;12.70;99.90;;;;;;5034854;28;20045;-84
2022/10/31 02:07:27;;;;;;;18.08;8.27;;;12.70;99.90;;;;;;5051216;28;20044;-84
2022/10/31 02:09:56;;;;;;;15.88;8.65;;;12.70;99.90;;;;;;5051447;28;20126;-84
2022/10/31 02:12:22;;;;;;;16.95;13.48;;;12.70;99.90;;;;;;5034208;28;20044;-84
2022/10/31 02:14:47;;;;;;;19.27;13.82;;;12.80;99.90;;;;;;5051012;28;20041;-84
2022/10/31 02:17:13;;;;;;;14.18;8.35;;;12.80;99.90;;;;;;5034591;28;20045;-84
2022/10/31 02:20:09;;;;;;;17.33;8.35;;;12.80;99.90;;;;;;5050990;28;20041;-84
2022/10/31 02:22:58;;;;;;;16.65;8.10;;;12.80;99.90;;;;;;5050110;28;20048;-84
2022/10/31 02:26:02;;;;;;;15.20;8.30;;;12.70;99.90;;;;;;5034634;28;20083;-84
2022/10/31 02:28:49;;;;;;;21.35;9.15;;;12.70;99.90;;;;;;5015803;28;20059;-84
2022/10/31 02:31:29;;;;;;;16.23;8.57;;;12.70;99.90;;;;;;5015946;28;20079;-84
2022/10/31 02:34:26;;;;;;;21.95;14.25;;;12.70;99.90;;;;;;5050310;28;20521;-84
2022/10/31 02:37:06;;;;;;;16.45;8.50;;;12.80;99.90;;;;;;5051302;28;20401;-84
2022/10/31 02:39:48;;;;;;;16.80;8.00;;;12.70;99.90;;;;;;5034130;28;20041;-84
2022/10/31 02:42:17;;;;;;;16.75;9.02;;;12.70;99.90;;;;;;5033894;28;20040;-84
2022/10/31 02:44:51;;;;;;;19.77;8.07;;;12.70;99.90;;;;;;5049463;28;20603;-83
2022/10/31 02:47:22;;;;;;;20.63;15.45;;;12.70;99.90;;;;;;5050801;28;20083;-84
2022/10/31 02:49:57;;;;;;;18.25;8.93;;;12.80;99.90;;;;;;5050504;28;20056;-83
2022/10/31 02:52:27;;;;;;;22.83;9.57;;;12.80;99.90;;;;;;5049810;28;20067;-85
2022/10/31 02:54:53;;;;;;;17.73;8.02;;;12.70;99.90;;;;;;5034386;28;20402;-84
2022/10/31 02:57:29;;;;;;;19.98;9.63;;;12.70;99.90;;;;;;5033502;28;20525;-84
2022/10/31 03:00:02;;;;;;;19.52;14.52;;;12.70;99.90;;;;;;5050845;28;20041;-84
2022/10/31 03:02:57;;;;;;;16.38;8.00;;;12.80;99.90;;;;;;5049619;28;20045;-84
2022/10/31 03:05:43;;;;;;;15.35;8.10;;;12.70;99.90;;;;;;5033801;28;20047;-84
2022/10/31 03:08:15;;;;;;;19.20;8.23;;;12.70;99.90;;;;;;5050185;28;20047;-84
2022/10/31 03:10:47;;;;;;;16.10;9.07;;;12.70;99.90;;;;;;5049949;28;20041;-84
2022/10/31 03:13:30;;;;;;;15.75;8.82;;;12.60;99.90;;;;;;5049204;28;20507;-84
2022/10/31 03:16:25;;;;;;;16.15;7.72;;;12.60;99.90;;;;;;5049717;28;20056;-84
2022/10/31 03:19:16;;;;;;;16.52;8.98;;;12.60;99.90;;;;;;5022921;28;20040;-84
2022/10/31 03:21:47;;;;;;;15.98;8.90;;;12.60;99.90;;;;;;5033595;28;20124;-84
2022/10/31 03:24:14;;;;;;;16.60;9.48;;;12.60;99.90;;;;;;5032550;28;20041;-84
2022/10/31 03:26:49;;;;;;;17.65;15.52;;;12.60;99.90;;;;;;5032744;28;20067;-84
2022/10/31 03:29:18;;;;;;;14.90;8.68;;;12.70;99.90;;;;;;5033773;28;20037;-84
2022/10/31 03:32:12;;;;;;;16.10;8.60;;;12.60;99.90;;;;;;5049310;28;20044;-84
2022/10/31 03:34:40;;;;;;;17.80;9.05;;;12.60;99.90;;;;;;5050103;28;20513;-84
2022/10/31 03:37:08;;;;;;;16.33;9.32;;;12.50;99.90;;;;;;5032692;28;20081;-84
2022/10/31 03:39:36;;;;;;;24.55;17.85;;;12.50;99.90;;;;;;5049904;28;20422;-84
2022/10/31 03:42:07;;;;;;;20.88;16.88;;;12.50;99.90;;;;;;5048752;28;20049;-84
2022/10/31 03:44:34;;;;;;;17.42;10.25;;;12.60;99.90;;;;;;5033017;28;20029;-84
2022/10/31 03:47:01;;;;;;;17.67;9.05;;;12.60;99.90;;;;;;5033049;28;20041;-84
2022/10/31 03:49:28;;;;;;;15.15;9.40;;;12.50;99.90;;;;;;5049449;28;20040;-84
2022/10/31 03:52:05;;;;;;;17.33;9.25;;;12.60;99.90;;;;;;5049438;28;20536;-84
2022/10/31 03:54:44;;;;;;;17.38;9.35;;;12.50;99.90;;;;;;5048992;28;20438;-84
2022/10/31 03:57:20;;;;;;;16.95;8.40;;;12.50;99.90;;;;;;5033000;28;20392;-83
2022/10/31 03:59:55;;;;;;;15.85;9.00;;;12.40;99.90;;;;;;5049619;28;20049;-84
2022/10/31 04:02:25;;;;;;;15.50;8.23;;;12.40;99.90;;;;;;5048098;28;20041;-83
2022/10/31 04:04:51;;;;;;;12.43;6.88;;;12.30;99.90;;;;;;5032667;28;20052;-84
2022/10/31 04:07:18;;;;;;;11.02;5.97;;;12.30;99.90;;;;;;5031919;28;20514;-84
2022/10/31 04:09:46;;;;;;;8.55;4.18;;;12.20;99.90;;;;;;5049920;28;20410;-84
2022/10/31 04:12:15;;;;;;;9.82;5.07;;;12.20;99.90;;;;;;5048958;28;20073;-83
2022/10/31 04:14:44;;;;;;;9.10;4.25;;;12.10;99.90;;;;;;5031843;28;20042;-84
2022/10/31 04:17:14;;;;;;;9.65;4.45;;;12.00;99.90;;;;;;5050137;28;20029;-84
2022/10/31 04:19:39;;;;;;;14.77;8.88;;;12.00;99.90;;;;;;5033076;28;20607;-84
2022/10/31 04:22:05;;;;;;;10.98;7.18;;;11.90;99.90;;;;;;5048925;28;20551;-83
2022/10/31 04:24:31;;;;;;;19.45;9.05;;;12.00;99.90;;;;;;5048038;28;20033;-84
2022/10/31 04:26:57;;;;;;;11.90;5.95;;;12.00;99.90;;;;;;5050579;28;20091;-84
2022/10/31 04:29:22;;;;;;;6.10;2.60;;;12.00;99.90;;;;;;5036783;28;20086;-83
2022/10/31 04:31:48;;;;;;;8.55;3.70;;;11.90;99.90;;;;;;5036343;28;20040;-83
2022/10/31 04:34:13;;;;;;;6.85;2.88;;;11.80;99.90;;;;;;5036125;28;20045;-84
2022/10/31 04:36:39;;;;;;;17.33;7.70;;;11.70;99.90;;;;;;5037061;28;20039;-83
2022/10/31 04:39:04;;;;;;;11.68;6.10;;;11.70;99.90;;;;;;5052897;28;20040;-83
2022/10/31 04:41:30;;;;;;;11.18;5.30;;;11.70;99.90;;;;;;5052614;28;20052;-83
2022/10/31 04:43:55;;;;;;;13.82;7.05;;;11.70;99.90;;;;;;5051588;28;20021;-84
2022/10/31 04:46:21;;;;;;;17.77;13.27;;;11.60;99.90;;;;;;5035780;28;20049;-84
2022/10/31 04:48:46;;;;;;;12.80;6.10;;;11.70;99.90;;;;;;5035965;28;20037;-83
2022/10/31 04:51:12;;;;;;;13.00;5.70;;;11.70;99.90;;;;;;5035617;28;20464;-84
2022/10/31 04:53:37;;;;;;;12.55;5.88;;;11.60;99.90;;;;;;5052239;28;20068;-84
2022/10/31 04:56:03;;;;;;;11.43;5.57;;;11.50;99.90;;;;;;5052110;28;20446;-84
2022/10/31 04:58:29;;;;;;;14.20;9.85;;;11.50;99.90;;;;;;5052592;28;20127;-84
2022/10/31 05:00:55;;;;;;;13.95;10.88;;;11.50;99.90;;;;;;5051828;28;20122;-84
2022/10/31 05:03:21;;;;;;;11.57;5.80;;;11.60;99.90;;;;;;5035353;28;20052;-84
2022/10/31 05:05:47;;;;;;;10.38;4.85;;;11.60;99.90;;;;;;5052164;28;20037;-83
2022/10/31 05:08:13;;;;;;;8.55;3.72;;;11.40;99.90;;;;;;5035735;28;20549;-83
2022/10/31 05:10:39;;;;;;;8.82;3.65;;;11.40;99.90;;;;;;5035912;28;20040;-84
2022/10/31 05:13:05;;;;;;;7.95;3.38;;;11.30;99.90;;;;;;5051825;28;20049;-83
2022/10/31 05:15:31;;;;;;;7.03;3.35;;;11.20;99.90;;;;;;5052872;28;20041;-84
2022/10/31 05:17:57;;;;;;;7.95;2.78;;;11.20;99.90;;;;;;5036190;28;20059;-83
2022/10/31 05:20:28;;;;;;;8.18;2.72;;;11.10;99.90;;;;;;5035802;28;20033;-84
2022/10/31 05:22:56;;;;;;;8.45;3.80;;;11.10;99.90;;;;;;5035640;28;20047;-83
2022/10/31 05:25:24;;;;;;;9.10;2.90;;;11.00;99.90;;;;;;5050983;28;20049;-83
2022/10/31 05:27:51;;;;;;;10.35;3.92;;;11.00;99.90;;;;;;5051529;28;20052;-83
2022/10/31 05:30:20;;;;;;;9.48;4.45;;;10.90;99.90;;;;;;5051495;28;20102;-84
2022/10/31 05:32:47;;;;;;;11.15;5.43;;;10.90;99.90;;;;;;5035269;28;20077;-83
2022/10/31 05:35:23;;;;;;;11.55;6.13;;;10.90;99.90;;;;;;5052952;28;20041;-84
2022/10/31 05:37:49;;;;;;;12.18;5.97;;;10.90;99.90;;;;;;5051511;28;20079;-83
2022/10/31 05:40:16;;;;;;;9.57;5.07;;;10.90;99.90;;;;;;5035804;28;20040;-83
2022/10/31 05:42:43;;;;;;;10.25;4.93;;;10.90;99.90;;;;;;5050735;28;20044;-83
2022/10/31 05:45:10;;;;;;;8.20;3.88;;;10.80;99.90;;;;;;5052054;28;20041;-83
2022/10/31 05:47:36;;;;;;;9.60;4.60;;;10.80;99.90;;;;;;5033957;28;20048;-83
2022/10/31 05:50:02;;;;;;;8.90;5.00;;;10.80;99.90;;;;;;5051598;28;20391;-84
2022/10/31 05:52:27;;;;;;;9.63;5.22;;;10.80;99.90;;;;;;5034220;28;20047;-83
2022/10/31 05:54:53;;;;;;;9.20;5.07;;;10.80;99.90;;;;;;5052150;28;20410;-84
2022/10/31 05:57:18;;;;;;;11.45;5.63;;;10.80;99.90;;;;;;5052478;28;20407;-83
2022/10/31 05:59:44;;;;;;;9.55;5.25;;;10.80;99.90;;;;;;5051184;28;20454;-84
2022/10/31 06:02:09;;;;;;;10.57;4.78;;;10.80;99.90;;;;;;5034910;28;20172;-83
2022/10/31 06:04:35;;;;;;;8.18;3.92;;;10.80;99.90;;;;;;5050759;28;20087;-84
2022/10/31 06:07:00;;;;;;;7.22;3.42;;;10.70;99.90;;;;;;5050539;28;20037;-83
2022/10/31 06:09:26;;;;;;;7.30;3.35;;;10.70;99.90;;;;;;5034115;28;20476;-83
2022/10/31 06:11:52;;;;;;;7.97;3.72;;;10.60;99.90;;;;;;5033745;28;20044;-83
2022/10/31 06:14:17;;;;;;;7.53;3.63;;;10.50;99.90;;;;;;5051338;28;20044;-83
2022/10/31 06:16:43;;;;;;;7.53;3.20;;;10.60;99.90;;;;;;5051664;28;20041;-83
2022/10/31 06:19:08;;;;;;;7.50;3.80;;;10.50;99.90;;;;;;5051212;28;20036;-83
2022/10/31 06:21:34;;;;;;;8.63;4.53;;;10.50;99.90;;;;;;5034454;28;20417;-83
2022/10/31 06:23:59;;;;;;;8.90;4.15;;;10.50;99.90;;;;;;5050222;28;20466;-83
2022/10/31 06:26:25;;;;;;;7.95;4.10;;;10.50;99.90;;;;;;5050448;28;20053;-83
2022/10/31 06:28:50;;;;;;;9.95;4.70;;;10.50;99.90;;;;;;5050018;28;20044;-83
2022/10/31 06:31:16;;;;;;;12.90;5.60;;;10.50;99.90;;;;;;5050722;28;20151;-83
2022/10/31 06:33:42;;;;;;;10.05;5.28;;;10.40;99.90;;;;;;5050963;28;20129;-84
2022/10/31 06:36:08;;;;;;;9.20;4.43;;;10.40;99.90;;;;;;5034040;28;20051;-83
2022/10/31 06:38:33;;;;;;;8.75;4.10;;;10.40;99.90;;;;;;5051312;28;20056;-84
2022/10/31 06:41:05;;;;;;;8.88;4.38;;;10.40;99.90;;;;;;5050909;28;20115;-83
2022/10/31 06:43:31;;;;;;;8.18;4.05;;;10.30;99.90;;;;;;5033507;28;20037;-83
2022/10/31 06:45:57;;;;;;;9.23;3.78;;;10.30;99.90;;;;;;5050634;28;20047;-84
2022/10/31 06:48:23;;;;;;;8.95;3.30;;;10.30;99.90;;;;;;5049823;28;20154;-83
2022/10/31 06:50:49;;;;;;;8.27;3.60;;;10.20;99.90;;;;;;5061033;28;20132;-83
2022/10/31 06:53:15;;;;;;;9.00;4.45;;;10.20;99.90;;;;;;5013929;28;20081;-83
2022/10/31 06:55:41;;;;;;;9.95;4.63;;;10.20;99.90;;;;;;5043137;28;20045;-83
2022/10/31 06:58:09;;;;;;;9.60;4.28;;;10.20;99.90;;;;;;5050392;28;20045;-84
2022/10/31 07:00:36;;;;;;;11.90;4.35;;;10.20;99.90;;;;;;5033813;28;20136;-83
2022/10/31 07:03:04;;;;;;;10.18;4.18;;;10.20;99.90;;;;;;5032566;28;20490;-83
2022/10/31 07:05:30;;;;;;;12.07;5.00;;;10.20;99.90;;;;;;5050290;28;20064;-83
2022/10/31 07:08:01;;;;;;;9.98;4.20;;;10.10;99.90;;;;;;5048949;28;20517;-83
2022/10/31 07:10:29;;;;;;;8.32;3.97;;;10.10;99.90;;;;;;5050460;28;20410;-83
2022/10/31 07:13:03;;;;;;;9.93;4.13;;;10.10;99.90;;;;;;5128561;27;20464;-83
2022/10/31 07:15:32;;;;;;;7.75;3.78;;;10.10;99.90;;;;;;5128323;28;20404;-82
2022/10/31 07:18:02;;;;;;;8.05;3.97;;;10.10;99.90;;;;;;5110943;28;20039;-82
2022/10/31 07:20:28;;;;;;;7.78;3.65;;;10.10;99.90;;;;;;5127145;28;20049;-82
2022/10/31 07:22:54;;;;;;;10.57;3.63;;;10.10;99.90;;;;;;5127624;27;20043;-82
2022/10/31 07:25:20;;;;;;;8.73;3.72;;;10.10;99.90;;;;;;5126861;27;20114;-83
2022/10/31 07:27:45;;;;;;;12.80;4.65;;;10.10;99.90;;;;;;5127195;28;20035;-82
2022/10/31 07:30:12;;;;;;;7.93;4.10;;;10.10;99.90;;;;;;5127242;28;20046;-83
2022/10/31 07:32:46;;;;;;;9.35;4.35;;;10.10;99.90;;;;;;5109431;28;20104;-83
2022/10/31 07:35:15;;;;;;;9.75;4.13;;;10.10;99.90;;;;;;5108796;28;20032;-82
2022/10/31 07:37:41;;;;;;;9.65;4.30;;;10.00;99.90;;;;;;5090966;28;20362;-83
2022/10/31 07:40:08;;;;;;;9.85;5.70;;;10.00;99.90;;;;;;5127025;28;20053;-83
2022/10/31 07:42:57;;;;;;;9.68;5.45;;;10.00;99.90;;;;;;5127348;28;20051;-83
2022/10/31 07:45:22;;;;;;;9.93;5.25;;;10.10;99.90;;;;;;5126252;28;20031;-83
2022/10/31 07:47:50;;;;;;;11.05;6.68;;;10.00;99.90;;;;;;5126822;28;20042;-83
2022/10/31 07:50:24;;;;;;;10.45;5.78;;;10.10;99.90;;;;;;5127102;28;20078;-83
2022/10/31 07:53:08;;;;;;;10.25;6.13;;;10.10;99.90;;;;;;5103154;28;20479;-83
2022/10/31 07:55:34;;;;;;;12.68;6.22;;;10.10;99.90;;;;;;5090407;28;20036;-83
2022/10/31 07:58:15;;;;;;;19.70;7.88;;;10.20;99.90;;;;;;5090129;28;20036;-83
2022/10/31 08:00:43;;;;;;;13.98;8.13;;;10.20;99.90;;;;;;5107623;28;20178;-82
2022/10/31 08:03:11;;;;;;;16.10;7.60;;;10.30;99.90;;;;;;5106450;28;20032;-83
2022/10/31 08:05:38;;;;;;;14.13;7.22;;;10.30;99.90;;;;;;5090353;28;20102;-83
2022/10/31 08:08:04;;;;;;;15.30;8.98;;;10.40;99.90;;;;;;5087593;28;20076;-83
2022/10/31 08:10:31;;;;;;;17.80;9.55;;;10.50;99.90;;;;;;5104987;28;20043;-83
2022/10/31 08:13:08;;;;;;;16.17;10.13;;;10.50;99.90;;;;;;5104311;28;20043;-83
2022/10/31 08:15:37;;;;;;;18.35;10.60;;;10.60;99.90;;;;;;5088287;28;20032;-83
2022/10/31 08:18:02;;;;;;;19.20;10.63;;;10.70;99.90;;;;;;5104634;28;20050;-90
2022/10/31 08:20:28;;;;;;;20.33;11.95;;;10.80;99.90;;;;;;5105013;28;20032;-90
2022/10/31 08:22:59;;;;;;;19.60;12.10;;;10.80;99.90;;;;;;5099197;28;20075;-90
2022/10/31 08:25:26;;;;;;;20.30;12.88;;;10.90;99.90;;;;;;5074244;28;20043;-90
2022/10/31 08:27:53;;;;;;;20.63;12.25;;;11.00;99.90;;;;;;5091278;28;20051;-90
2022/10/31 08:30:20;;;;;;;23.42;13.73;;;11.10;99.90;;;;;;5115856;27;20093;-90
2022/10/31 08:32:46;;;;;;;22.17;14.05;;;11.10;99.90;;;;;;5090971;28;20065;-90
2022/10/31 08:35:11;;;;;;;25.40;15.27;;;11.20;99.90;;;;;;5092139;28;20040;-90
2022/10/31 08:37:37;;;;;;;22.98;14.10;;;11.30;99.90;;;;;;5093035;28;20031;-89
2022/10/31 08:40:03;;;;;;;22.55;14.88;;;11.40;99.90;;;;;;5092758;28;20489;-90
2022/10/31 08:42:29;;;;;;;25.00;15.10;;;11.40;99.90;;;;;;5075316;28;20043;-90
2022/10/31 08:44:54;;;;;;;22.63;14.70;;;11.50;99.90;;;;;;5092745;28;20519;-90
2022/10/31 08:47:20;;;;;;;23.40;14.52;;;11.60;99.90;;;;;;5075224;28;20036;-90
2022/10/31 08:49:45;;;;;;;20.73;13.65;;;11.70;99.90;;;;;;5093907;28;20047;-90
2022/10/31 08:52:11;;;;;;;23.63;15.13;;;11.80;99.90;;;;;;5091916;28;20051;-89
2022/10/31 08:54:36;;;;;;;30.90;27.58;;;11.90;99.90;;;;;;5091971;28;20032;-90
2022/10/31 08:57:02;;;;;;;25.88;16.48;;;12.10;99.90;;;;;;5092250;28;20123;-90
2022/10/31 08:59:27;;;;;;;25.05;16.05;;;12.20;99.90;;;;;;5092152;28;20177;-90
2022/10/31 09:01:53;;;;;;;23.80;14.55;;;12.20;99.90;;;;;;5092110;28;20097;-90
2022/10/31 09:04:18;;;;;;;25.80;16.02;;;12.30;99.90;;;;;;5091666;28;20043;-90
2022/10/31 09:06:44;;;;;;;22.77;15.02;;;12.40;99.90;;;;;;5075119;28;20051;-91
2022/10/31 09:09:09;;;;;;;30.60;27.42;;;12.40;99.90;;;;;;5075147;28;20044;-91
2022/10/31 09:11:35;;;;;;;25.85;16.52;;;12.50;99.90;;;;;;5074980;28;20405;-90
2022/10/31 09:14:01;;;;;;;25.80;15.75;;;12.60;99.90;;;;;;5091816;28;20489;-90
2022/10/31 09:16:26;;;;;;;29.98;26.88;;;12.70;99.90;;;;;;5074623;28;20515;-91
2022/10/31 09:18:52;;;;;;;22.73;16.10;;;12.80;99.90;;;;;;5091895;28;20519;-90
2022/10/31 09:21:17;;;;;;;30.30;27.17;;;12.80;99.90;;;;;;5093264;28;20044;-90
2022/10/31 09:23:43;;;;;;;26.10;16.58;;;12.90;99.90;;;;;;5091290;28;20436;-91
2022/10/31 09:26:08;;;;;;;23.55;15.10;;;12.90;99.90;;;;;;5091737;28;20040;-90
2022/10/31 09:28:35;;;;;;;29.33;26.20;;;12.90;99.90;;;;;;5091707;28;20039;-91
2022/10/31 09:31:00;;;;;;;28.92;26.02;;;13.10;99.90;;;;;;5091326;28;20404;-91
2022/10/31 09:33:26;;;;;;;25.20;15.55;;;13.20;99.90;;;;;;5074382;28;20127;-91
2022/10/31 09:35:52;;;;;;;28.33;17.15;;;13.20;99.90;;;;;;5091562;28;20083;-91
2022/10/31 09:38:20;;;;;;;29.15;26.08;;;13.20;99.90;;;;;;5091569;28;20067;-91
2022/10/31 09:41:06;;;;;;;24.55;16.05;;;13.30;99.90;;;;;;5074469;28;20028;-90
2022/10/31 09:43:59;;;;;;;24.52;15.57;;;13.30;99.90;;;;;;5050336;28;20481;-90
2022/10/31 09:47:08;;;;;;;24.40;14.75;;;13.30;99.90;;;;;;5074827;28;20040;-90
2022/10/31 09:49:55;;;;;;;25.85;15.45;;;13.40;99.90;;;;;;5013532;28;20133;-90
2022/10/31 09:52:35;;;;;;;24.52;14.68;;;13.50;99.90;;;;;;5090556;28;20051;-90
2022/10/31 09:55:30;;;;;;;24.52;16.70;;;13.60;99.90;;;;;;5073996;28;20032;-90
2022/10/31 09:57:55;;;;;;;27.23;24.38;;;13.60;99.90;;;;;;5091246;28;20114;-90
2022/10/31 10:00:22;;;;;;;27.10;24.20;;;13.80;99.90;;;;;;5091251;28;20079;-91
2022/10/31 10:03:11;;;;;;;24.42;16.08;;;13.90;99.90;;;;;;5073759;28;20040;-90
2022/10/31 10:05:49;;;;;;;24.67;14.98;;;13.90;99.90;;;;;;5073178;28;20516;-91
2022/10/31 10:08:30;;;;;;;27.67;24.75;;;14.00;99.90;;;;;;5070595;28;20044;-91
2022/10/31 10:11:14;;;;;;;22.05;16.33;;;14.10;99.90;;;;;;5070164;28;20444;-91
2022/10/31 10:13:57;;;;;;;26.83;22.77;;;14.20;99.90;;;;;;5069159;28;20698;-91
2022/10/31 10:16:37;;;;;;;24.85;22.23;;;14.30;99.90;;;;;;5073410;28;20101;-90
2022/10/31 10:19:13;;;;;;;28.65;24.33;;;14.50;99.90;;;;;;5088387;28;20032;-90
2022/10/31 10:22:17;;;;;;;23.02;15.18;;;14.50;99.90;;;;;;5090220;28;20040;-91
2022/10/31 10:25:09;;;;;;;25.38;21.73;;;14.60;99.90;;;;;;5087446;28;20570;-90
2022/10/31 10:27:57;;;;;;;25.38;21.17;;;14.70;99.90;;;;;;5089155;28;20043;-91
2022/10/31 10:30:29;;;;;;;25.75;20.48;;;14.80;99.90;;;;;;5089869;28;20067;-91
2022/10/31 10:33:02;;;;;;;24.80;19.85;;;14.90;99.90;;;;;;5088641;28;20036;-90
2022/10/31 10:35:33;;;;;;;;;;;15.00;99.90;;;;;;5073581;28;20042;-90
2022/10/31 10:38:08;;;;;;;24.25;19.92;;;15.00;99.90;;;;;;5090389;28;19920;-90
2022/10/31 10:40:34;;;;;;;24.50;20.05;;;15.00;99.90;;;;;;5073522;28;20047;-90
2022/10/31 10:49:10;;;;;;;23.17;18.42;;;15.10;99.90;;;;;;5112857;27;20493;-90
2022/10/31 10:52:03;;;;;;;22.75;18.52;;;15.20;99.90;;;;;;5087589;28;20089;-91
2022/10/31 10:54:57;;;;;;;23.98;18.50;;;15.20;99.90;;;;;;5090015;28;20051;-91
2022/10/31 10:57:34;;;;;;;23.48;18.75;;;15.30;99.90;;;;;;5073621;28;20123;-91
2022/10/31 11:00:15;;;;;;;20.48;12.35;;;15.40;99.90;;;;;;5087541;28;20036;-90
2022/10/31 11:02:41;;;;;;;21.45;17.02;;;15.30;99.90;;;;;;5072520;28;20515;-91
2022/10/31 11:05:32;;;;;;;22.58;17.77;;;15.40;99.90;;;;;;5073350;28;20131;-91
2022/10/31 11:07:57;;;;;;;22.80;18.50;;;15.50;99.90;;;;;;5088789;28;20050;-91
2022/10/31 11:10:23;;;;;;;23.05;18.63;;;15.50;99.90;;;;;;5089792;28;20107;-91
2022/10/31 11:13:05;;;;;;;28.00;18.70;;;15.50;99.90;;;;;;5088830;28;20059;-91
2022/10/31 11:16:00;;;;;;;22.17;17.38;;;15.50;99.90;;;;;;5087157;28;20032;-91
2022/10/31 11:18:30;;;;;;;21.48;17.63;;;15.60;99.90;;;;;;5072304;28;20481;-91
2022/10/31 11:20:58;;;;;;;21.80;17.40;;;15.60;99.90;;;;;;5089945;28;20036;-91
2022/10/31 11:23:25;;;;;;;21.50;17.23;;;15.60;99.90;;;;;;5089499;28;20061;-91
2022/10/31 11:25:52;;;;;;;20.98;16.63;;;15.70;99.90;;;;;;5089879;28;20051;-91
2022/10/31 11:28:18;;;;;;;21.67;18.05;;;15.70;99.90;;;;;;5089866;28;20032;-91
2022/10/31 11:30:56;;;;;;;21.75;17.23;;;15.70;99.90;;;;;;5072979;28;20118;-91
2022/10/31 11:33:38;;;;;;;18.75;11.45;;;15.80;99.90;;;;;;5072818;28;20079;-91
2022/10/31 11:36:24;;;;;;;23.08;16.70;;;15.70;99.90;;;;;;5072616;28;20032;-91
2022/10/31 11:38:51;;;;;;;20.75;16.15;;;15.70;99.90;;;;;;5089923;28;20040;-91
2022/10/31 11:41:42;;;;;;;19.92;15.88;;;15.80;99.90;;;;;;5073406;28;20497;-91
2022/10/31 11:44:28;;;;;;;22.23;16.65;;;15.80;99.90;;;;;;5072878;28;20051;-91
2022/10/31 11:46:58;;;;;;;23.27;17.25;;;15.90;99.90;;;;;;5073999;28;20067;-91
2022/10/31 11:49:42;;;;;;;22.85;17.38;;;15.90;99.90;;;;;;5089528;28;20613;-91
2022/10/31 11:52:21;;;;;;;24.02;17.52;;;16.00;99.90;;;;;;5072707;28;20180;-90
2022/10/31 11:54:48;;;;;;;23.90;17.77;;;16.00;99.90;;;;;;5072539;28;20085;-91
2022/10/31 11:57:32;;;;;;;20.65;16.58;;;16.00;99.90;;;;;;5089883;28;20127;-91
2022/10/31 12:00:04;;;;;;;23.70;16.73;;;16.10;99.90;;;;;;5076807;28;20032;-91
2022/10/31 12:02:29;;;;;;;20.63;12.50;;;16.10;99.90;;;;;;5093285;28;20036;-91
2022/10/31 12:05:07;;;;;;;20.23;16.25;;;16.00;99.90;;;;;;5076591;28;20089;-91
2022/10/31 12:07:33;;;;;;;23.08;17.23;;;16.10;99.90;;;;;;5093495;28;20039;-91
2022/10/31 12:09:59;;;;;;;21.13;15.88;;;16.10;99.90;;;;;;5093629;28;20178;-92
2022/10/31 12:12:41;;;;;;;23.75;16.92;;;16.20;99.90;;;;;;5092457;28;20040;-91
2022/10/31 12:15:36;;;;;;;19.33;10.52;;;16.20;99.90;;;;;;5093298;28;20039;-91
2022/10/31 12:18:20;;;;;;;22.70;16.33;;;16.20;99.90;;;;;;5094482;28;20028;-92
2022/10/31 12:21:07;;;;;;;22.67;17.25;;;16.20;99.90;;;;;;5093286;28;20036;-91
2022/10/31 12:24:02;;;;;;;20.27;14.93;;;16.20;99.90;;;;;;5092435;28;20492;-91
2022/10/31 12:26:38;;;;;;;23.30;15.70;;;16.30;99.90;;;;;;4994887;28;20046;-91
2022/10/31 12:29:22;;;;;;;24.45;17.58;;;16.40;99.90;;;;;;5000050;28;20038;-91
2022/10/31 12:32:15;;;;;;;20.17;16.23;;;16.50;99.90;;;;;;4976646;28;20105;-91
2022/10/31 12:35:08;;;;;;;21.13;15.65;;;16.70;99.90;;;;;;4991390;28;20038;-90
2022/10/31 12:37:52;;;;;;;20.83;15.52;;;16.90;99.90;;;;;;4993851;28;20119;-91
2022/10/31 12:40:35;;;;;;;18.60;12.45;;;17.10;99.90;;;;;;4978353;28;20038;-91
2022/10/31 12:43:23;;;;;;;16.10;11.20;;;17.40;99.90;;;;;;4972438;28;20174;-91
2022/10/31 12:45:54;;;;;;;17.45;10.77;;;17.70;99.90;;;;;;4978052;28;20037;-91
2022/10/31 12:48:58;;;;;;;16.60;11.63;;;17.80;99.90;;;;;;4977737;28;20049;-92
2022/10/31 12:51:33;;;;;;;16.83;11.57;;;17.90;99.90;;;;;;4994171;28;20175;-91
2022/10/31 12:54:31;;;;;;;16.48;12.05;;;18.00;99.90;;;;;;4993550;28;20419;-91
2022/10/31 12:57:16;;;;;;;18.30;13.07;;;18.10;99.90;;;;;;5018055;28;20046;-91
2022/10/31 12:59:47;;;;;;;18.38;13.10;;;18.40;99.90;;;;;;4975550;28;20440;-91
2022/10/31 13:02:35;;;;;;;15.73;10.68;;;18.90;99.90;;;;;;5015133;28;20129;-91